Time;durP1;ratioP1;P1;durP2;ratioP2;P2;SDS_P1;SDS_P2;PMS_P1;PMS_P2;Temp;Humidity;BMP_temperature;BMP_pressure;BME280_temperature;BME280_humidity;BME280_pressure;Samples;Min_cycle;Max_cycle;Signal;HPM_P1;HPM_P2
2021/11/11 00:00:12;;;;;;;;;;;;;;;;;;5030512;28;19933;-67
2021/11/11 00:02:39;;;;;;;;;;;;;;;;;;5027939;28;19925;-66
2021/11/11 00:05:06;;;;;;;;;;;;;;;;;;5035116;28;19933;-67
2021/11/11 00:07:33;;;;;;;;;;;;;;;;;;5030434;28;19940;-66
2021/11/11 00:10:00;;;;;;;;;;;;;;;;;;5027243;28;19925;-67
2021/11/11 00:12:31;;;;;;;;;;;;;;;;;;5035088;28;19929;-67
2021/11/11 00:14:58;;;;;;;;;;;;;;;;;;5029099;28;19929;-67
2021/11/11 00:17:25;;;;;;;;;;;;;;;;;;5030568;28;20027;-67
2021/11/11 00:19:52;;;;;;;;;;;;;;;;;;5031882;28;20388;-67
2021/11/11 00:22:19;;;;;;;;;;;;;;;;;;5034185;28;20305;-67
2021/11/11 00:24:46;;;;;;;;;;;;;;;;;;5031216;28;19940;-66
2021/11/11 00:27:13;;;;;;;;;;;;;;;;;;5029395;28;20405;-66
2021/11/11 00:29:40;;;;;;;;;;;;;;;;;;5032765;28;19929;-66
2021/11/11 00:32:07;;;;;;;;;;;;;;;;;;5036555;28;20016;-67
2021/11/11 00:34:34;;;;;;;;;;;;;;;;;;5037027;28;19937;-67
2021/11/11 00:37:01;;;;;;;;;;;;;;;;;;5023421;28;20404;-67
2021/11/11 00:39:28;;;;;;;;;;;;;;;;;;5036454;28;19951;-66
2021/11/11 00:41:55;;;;;;;;;;;;;;;;;;5040694;28;19936;-67
2021/11/11 00:44:22;;;;;;;;;;;;;;;;;;5038529;28;19933;-66
2021/11/11 00:46:49;;;;;;;;;;;;;;;;;;5029955;28;19925;-67
2021/11/11 00:49:16;;;;;;;;;;;;;;;;;;5034240;28;20533;-66
2021/11/11 00:51:44;;;;;;;;;;;;;;;;;;5033597;28;19948;-66
2021/11/11 00:54:10;;;;;;;;;;;;;;;;;;5037144;28;19959;-67
2021/11/11 00:56:38;;;;;;;;;;;;;;;;;;5035460;28;19935;-67
2021/11/11 00:59:06;;;;;;;;;;;;;;;;;;5035486;28;19952;-64
2021/11/11 01:01:33;;;;;;;;;;;;;;;;;;5036988;28;20020;-67
2021/11/11 01:04:00;;;;;;;;;;;;;;;;;;5037242;28;19926;-66
2021/11/11 01:06:27;;;;;;;;;;;;;;;;;;5030943;28;20313;-67
2021/11/11 01:08:54;;;;;;;;;;;;;;;;;;5035816;28;19929;-66
2021/11/11 01:11:21;;;;;;;;;;;;;;;;;;5032396;28;19925;-66
2021/11/11 01:13:48;;;;;;;;;;;;;;;;;;5031165;28;19932;-66
2021/11/11 01:16:15;;;;;;;;;;;;;;;;;;5034841;28;19932;-65
2021/11/11 01:18:42;;;;;;;;;;;;;;;;;;5034245;28;19987;-67
2021/11/11 01:21:09;;;;;;;;;;;;;;;;;;5035418;28;19929;-68
2021/11/11 01:23:36;;;;;;;;;;;;;;;;;;5035278;28;19925;-65
2021/11/11 01:26:03;;;;;;;;;;;;;;;;;;5038175;28;20373;-66
2021/11/11 01:28:30;;;;;;;;;;;;;;;;;;5030012;28;19932;-65
2021/11/11 01:30:57;;;;;;;;;;;;;;;;;;5036968;28;20458;-67
2021/11/11 01:33:24;;;;;;;;;;;;;;;;;;5037596;28;19925;-66
2021/11/11 01:35:51;;;;;;;;;;;;;;;;;;5030162;28;19936;-67
2021/11/11 01:38:18;;;;;;;;;;;;;;;;;;5034543;28;19968;-66
2021/11/11 01:40:45;;;;;;;;;;;;;;;;;;5043568;28;19925;-66
2021/11/11 01:43:12;;;;;;;;;;;;;;;;;;5037228;28;19933;-66
2021/11/11 01:45:39;;;;;;;;;;;;;;;;;;5040454;28;20304;-66
2021/11/11 01:48:06;;;;;;;;;;;;;;;;;;5036718;28;19929;-66
2021/11/11 01:50:33;;;;;;;;;;;;;;;;;;5028465;28;20032;-66
2021/11/11 01:53:00;;;;;;;;;;;;;;;;;;5035463;28;20336;-66
2021/11/11 01:55:27;;;;;;;;;;;;;;;;;;5031573;28;19933;-66
2021/11/11 01:57:54;;;;;;;;;;;;;;;;;;5035167;28;19929;-66
2021/11/11 02:00:21;;;;;;;;;;;;;;;;;;5039361;28;19925;-67
2021/11/11 02:02:48;;;;;;;;;;;;;;;;;;5033526;28;19932;-67
2021/11/11 02:05:15;;;;;;;;;;;;;;;;;;5034519;28;19971;-67
2021/11/11 02:07:42;;;;;;;;;;;;;;;;;;5032292;28;20313;-67
2021/11/11 02:10:09;;;;;;;;;;;;;;;;;;5032233;28;19932;-66
2021/11/11 02:12:36;;;;;;;;;;;;;;;;;;5037958;28;19925;-65
2021/11/11 02:15:03;;;;;;;;;;;;;;;;;;5034279;28;19932;-66
2021/11/11 02:17:30;;;;;;;;;;;;;;;;;;5034152;28;20004;-66
2021/11/11 02:19:56;;;;;;;;;;;;;;;;;;5031981;28;20413;-65
2021/11/11 02:22:23;;;;;;;;;;;;;;;;;;5029099;28;19925;-67
2021/11/11 02:24:50;;;;;;;;;;;;;;;;;;5028621;28;19925;-66
2021/11/11 02:27:17;;;;;;;;;;;;;;;;;;5029449;28;19964;-65
2021/11/11 02:29:44;;;;;;;;;;;;;;;;;;5035971;28;20320;-65
2021/11/11 02:32:11;;;;;;;;;;;;;;;;;;5034112;28;20270;-65
2021/11/11 02:34:38;;;;;;;;;;;;;;;;;;5034045;28;19932;-65
2021/11/11 02:37:05;;;;;;;;;;;;;;;;;;5033399;28;19925;-66
2021/11/11 02:39:32;;;;;;;;;;;;;;;;;;5023711;28;20012;-65
2021/11/11 02:41:59;;;;;;;;;;;;;;;;;;5033698;28;19925;-65
2021/11/11 02:44:26;;;;;;;;;;;;;;;;;;5033470;28;19929;-66
2021/11/11 02:46:54;;;;;;;;;;;;;;;;;;5031011;28;19932;-66
2021/11/11 02:49:21;;;;;;;;;;;;;;;;;;5033491;28;19964;-66
2021/11/11 02:51:48;;;;;;;;;;;;;;;;;;5032085;28;20320;-67
2021/11/11 02:54:15;;;;;;;;;;;;;;;;;;5033093;28;19925;-66
2021/11/11 02:56:42;;;;;;;;;;;;;;;;;;5032539;28;19931;-66
2021/11/11 02:59:09;;;;;;;;;;;;;;;;;;5033966;28;19948;-65
2021/11/11 03:01:35;;;;;;;;;;;;;;;;;;5033827;28;19925;-65
2021/11/11 03:04:02;;;;;;;;;;;;;;;;;;5033226;28;19925;-66
2021/11/11 03:06:29;;;;;;;;;;;;;;;;;;5033527;28;19925;-65
2021/11/11 03:08:56;;;;;;;;;;;;;;;;;;5031811;28;20153;-66
2021/11/11 03:11:27;;;;;;;;;;;;;;;;;;5033482;28;19932;-65
2021/11/11 03:13:54;;;;;;;;;;;;;;;;;;5033213;28;19929;-65
2021/11/11 03:16:21;;;;;;;;;;;;;;;;;;5032722;28;19925;-65
2021/11/11 03:18:48;;;;;;;;;;;;;;;;;;5032755;28;19929;-65
2021/11/11 03:21:15;;;;;;;;;;;;;;;;;;5032386;28;19972;-65
2021/11/11 03:23:42;;;;;;;;;;;;;;;;;;5033180;28;19932;-65
2021/11/11 03:26:09;;;;;;;;;;;;;;;;;;5032147;28;20415;-65
2021/11/11 03:28:36;;;;;;;;;;;;;;;;;;5033400;28;20012;-67
2021/11/11 03:31:03;;;;;;;;;;;;;;;;;;5030849;28;19932;-67
2021/11/11 03:33:30;;;;;;;;;;;;;;;;;;5032684;28;19925;-67
2021/11/11 03:35:57;;;;;;;;;;;;;;;;;;5032262;28;19925;-67
2021/11/11 03:38:24;;;;;;;;;;;;;;;;;;5046239;28;19932;-67
2021/11/11 03:40:51;;;;;;;;;;;;;;;;;;5029302;28;20321;-67
2021/11/11 03:43:18;;;;;;;;;;;;;;;;;;5058685;22;19924;-60
2021/11/11 03:45:45;;;;;;;;;;;;;;;;;;5076053;28;20303;-60
2021/11/11 03:48:12;;;;;;;;;;;;;;;;;;5078922;28;19940;-60
2021/11/11 03:50:39;;;;;;;;;;;;;;;;;;5069770;28;19924;-60
2021/11/11 03:53:06;;;;;;;;;;;;;;;;;;5071152;28;19925;-60
2021/11/11 03:55:33;;;;;;;;;;;;;;;;;;5062628;28;19931;-60
2021/11/11 03:58:00;;;;;;;;;;;;;;;;;;5053338;28;19925;-58
2021/11/11 04:00:29;;;;;;;;;;;;;;;;;;5052305;28;19931;-61
2021/11/11 04:02:56;;;;;;;;;;;;;;;;;;5051927;28;20377;-61
2021/11/11 04:05:22;;;;;;;;;;;;;;;;;;5059684;28;19925;-60
2021/11/11 04:07:49;;;;;;;;;;;;;;;;;;5052037;28;19932;-60
2021/11/11 04:10:16;;;;;;;;;;;;;;;;;;5055591;28;19941;-60
2021/11/11 04:12:43;;;;;;;;;;;;;;;;;;5056259;28;20039;-61
2021/11/11 04:15:11;;;;;;;;;;;;;;;;;;5057193;28;20304;-59
2021/11/11 04:17:38;;;;;;;;;;;;;;;;;;5054465;28;19983;-60
2021/11/11 04:20:05;;;;;;;;;;;;;;;;;;5056081;28;19952;-60
2021/11/11 04:22:32;;;;;;;;;;;;;;;;;;5052048;28;20374;-60
2021/11/11 04:25:02;;;;;;;;;;;;;;;;;;5056959;28;19924;-58
2021/11/11 04:27:32;;;;;;;;;;;;;;;;;;5052923;28;19983;-61
2021/11/11 04:30:08;;;;;;;;;;;;;;;;;;5061126;28;19925;-60
2021/11/11 04:32:35;;;;;;;;;;;;;;;;;;5063394;28;19996;-61
2021/11/11 04:35:02;;;;;;;;;;;;;;;;;;5058967;28;19925;-59
2021/11/11 04:37:33;;;;;;;;;;;;;;;;;;5058442;28;20008;-61
2021/11/11 05:02:25;;;;;;;;;;;;;;;;;;5033625;28;19920;-55
2021/11/11 05:04:52;;;;;;;;;;;;;;;;;;5050815;28;19975;-58
2021/11/11 05:07:19;;;;;;;;;;;;;;;;;;5047493;28;19925;-56
2021/11/11 05:09:45;;;;;;;;;;;;;;;;;;5052354;28;20303;-55
2021/11/11 05:12:14;;;;;;;;;;;;;;;;;;5049460;28;20444;-59
2021/11/11 05:14:40;;;;;;;;;;;;;;;;;;5055233;28;20007;-56
2021/11/11 05:17:07;;;;;;;;;;;;;;;;;;5047603;28;19925;-57
2021/11/11 05:19:34;;;;;;;;;;;;;;;;;;5051531;28;19924;-54
2021/11/11 05:22:01;;;;;;;;;;;;;;;;;;5049217;28;20381;-57
2021/11/11 05:24:28;;;;;;;;;;;;;;;;;;5063400;28;19925;-58
2021/11/11 05:26:56;;;;;;;;;;;;;;;;;;5045470;28;20289;-57
2021/11/11 05:29:23;;;;;;;;;;;;;;;;;;5051427;28;19925;-58
2021/11/11 05:31:50;;;;;;;;;;;;;;;;;;5054171;28;19940;-55
2021/11/11 05:34:17;;;;;;;;;;;;;;;;;;5052915;28;19924;-60
2021/11/11 05:36:44;;;;;;;;;;;;;;;;;;5048587;28;19925;-59
2021/11/11 05:39:11;;;;;;;;;;;;;;;;;;5056228;28;19931;-58
2021/11/11 05:41:39;;;;;;;;;;;;;;;;;;5057406;28;19924;-61
2021/11/11 05:44:06;;;;;;;;;;;;;;;;;;5052926;28;20304;-57
2021/11/11 05:46:33;;;;;;;;;;;;;;;;;;5053337;28;20391;-58
2021/11/11 05:49:00;;;;;;;;;;;;;;;;;;5054962;28;19929;-57
2021/11/11 05:51:27;;;;;;;;;;;;;;;;;;5050645;28;19924;-58
2021/11/11 05:53:54;;;;;;;;;;;;;;;;;;5051087;28;20301;-59
2021/11/11 05:56:21;;;;;;;;;;;;;;;;;;5058776;28;19931;-61
2021/11/11 05:58:48;;;;;;;;;;;;;;;;;;5056868;28;20047;-59
2021/11/11 06:01:15;;;;;;;;;;;;;;;;;;5051214;28;20359;-56
2021/11/11 06:03:42;;;;;;;;;;;;;;;;;;5050632;28;20372;-58
2021/11/11 06:06:09;;;;;;;;;;;;;;;;;;5053055;28;19928;-58
2021/11/11 06:08:36;;;;;;;;;;;;;;;;;;5045409;28;19935;-59
2021/11/11 06:11:03;;;;;;;;;;;;;;;;;;5048526;28;19924;-59
2021/11/11 06:13:30;;;;;;;;;;;;;;;;;;5050564;28;19924;-60
2021/11/11 06:15:57;;;;;;;;;;;;;;;;;;5054635;28;19924;-58
2021/11/11 06:18:24;;;;;;;;;;;;;;;;;;5052279;28;19947;-58
2021/11/11 06:20:57;;;;;;;;;;;;;;;;;;5054823;28;20388;-52
2021/11/11 06:23:24;;;;;;;;;;;;;;;;;;5054030;28;19925;-59
2021/11/11 06:25:51;;;;;;;;;;;;;;;;;;5057364;28;20300;-61
2021/11/11 06:28:18;;;;;;;;;;;;;;;;;;5059721;28;19925;-60
2021/11/11 06:30:45;;;;;;;;;;;;;;;;;;5061974;28;19928;-61
2021/11/11 06:33:12;;;;;;;;;;;;;;;;;;5056874;28;19925;-61
2021/11/11 06:35:38;;;;;;;;;;;;;;;;;;5061928;28;20400;-63
2021/11/11 06:38:05;;;;;;;;;;;;;;;;;;5060989;28;19939;-59
2021/11/11 06:40:32;;;;;;;;;;;;;;;;;;5075053;28;19979;-59
2021/11/11 06:42:59;;;;;;;;;;;;;;;;;;5065561;28;19959;-59
2021/11/11 06:45:26;;;;;;;;;;;;;;;;;;5059971;28;20296;-58
2021/11/11 06:47:53;;;;;;;;;;;;;;;;;;5059599;28;19936;-58
2021/11/11 06:50:20;;;;;;;;;;;;;;;;;;5059707;28;19935;-60
2021/11/11 06:52:47;;;;;;;;;;;;;;;;;;5059973;28;19971;-60
2021/11/11 06:55:14;;;;;;;;;;;;;;;;;;5063862;28;20289;-59
2021/11/11 06:57:41;;;;;;;;;;;;;;;;;;5061959;28;20309;-58
2021/11/11 07:00:08;;;;;;;;;;;;;;;;;;5059947;28;19980;-60
2021/11/11 07:02:35;;;;;;;;;;;;;;;;;;5059952;28;19988;-60
2021/11/11 07:05:02;;;;;;;;;;;;;;;;;;5058149;28;19947;-61
2021/11/11 07:07:29;;;;;;;;;;;;;;;;;;5065232;28;19931;-60
2021/11/11 07:09:56;;;;;;;;;;;;;;;;;;5057973;28;20513;-59
2021/11/11 07:12:23;;;;;;;;;;;;;;;;;;5063706;28;19932;-61
2021/11/11 07:14:50;;;;;;;;;;;;;;;;;;5064555;28;19999;-61
2021/11/11 07:17:17;;;;;;;;;;;;;;;;;;5060474;28;19971;-61
2021/11/11 07:19:44;;;;;;;;;;;;;;;;;;5056639;28;19967;-61
2021/11/11 07:22:11;;;;;;;;;;;;;;;;;;5054145;28;19933;-61
2021/11/11 07:24:37;;;;;;;;;;;;;;;;;;5052788;28;20016;-61
2021/11/11 07:27:04;;;;;;;;;;;;;;;;;;5059810;28;19931;-60
2021/11/11 07:29:31;;;;;;;;;;;;;;;;;;5058763;28;19933;-59
2021/11/11 07:31:59;;;;;;;;;;;;;;;;;;5059500;28;19925;-61
2021/11/11 07:34:26;;;;;;;;;;;;;;;;;;5057390;28;19929;-60
2021/11/11 07:36:54;;;;;;;;;;;;;;;;;;5064936;28;20418;-61
2021/11/11 07:39:21;;;;;;;;;;;;;;;;;;5058102;28;20392;-60
2021/11/11 07:41:48;;;;;;;;;;;;;;;;;;5057926;28;19946;-61
2021/11/11 07:44:15;;;;;;;;;;;;;;;;;;5054068;28;19925;-61
2021/11/11 07:46:42;;;;;;;;;;;;;;;;;;5061670;28;19924;-61
2021/11/11 07:49:10;;;;;;;;;;;;;;;;;;5050980;28;19932;-61
2021/11/11 07:51:37;;;;;;;;;;;;;;;;;;5050663;28;19929;-61
2021/11/11 07:54:04;;;;;;;;;;;;;;;;;;5052681;28;20352;-61
2021/11/11 07:56:31;;;;;;;;;;;;;;;;;;5055206;28;19924;-61
2021/11/11 07:58:58;;;;;;;;;;;;;;;;;;5052295;28;19929;-61
2021/11/11 08:01:25;;;;;;;;;;;;;;;;;;5052588;28;19929;-60
2021/11/11 08:03:52;;;;;;;;;;;;;;;;;;5049750;28;19991;-58
2021/11/11 08:06:19;;;;;;;;;;;;;;;;;;5046984;28;20339;-61
2021/11/11 08:08:46;;;;;;;;;;;;;;;;;;5030144;28;19942;-61
2021/11/11 08:11:13;;;;;;;;;;;;;;;;;;5050107;28;19932;-60
2021/11/11 08:13:40;;;;;;;;;;;;;;;;;;5053533;28;19925;-60
2021/11/11 08:16:07;;;;;;;;;;;;;;;;;;5052290;28;19931;-61
2021/11/11 08:18:34;;;;;;;;;;;;;;;;;;5059373;28;19931;-62
2021/11/11 08:21:01;;;;;;;;;;;;;;;;;;5054596;28;19992;-61
2021/11/11 08:23:28;;;;;;;;;;;;;;;;;;5060236;28;19971;-62
2021/11/11 08:26:00;;;;;;;;;;;;;;;;;;5069078;28;19925;-59
2021/11/11 08:28:27;;;;;;;;;;;;;;;;;;5051642;28;19940;-63
2021/11/11 08:30:54;;;;;;;;;;;;;;;;;;5065635;28;19968;-62
2021/11/11 08:33:21;;;;;;;;;;;;;;;;;;5065827;28;20376;-60
2021/11/11 08:35:49;;;;;;;;;;;;;;;;;;5055543;28;20981;-62
2021/11/11 08:38:16;;;;;;;;;;;;;;;;;;5057993;28;19963;-62
2021/11/11 08:40:43;;;;;;;;;;;;;;;;;;5056569;28;19931;-62
2021/11/11 08:43:11;;;;;;;;;;;;;;;;;;5041152;28;19976;-58
2021/11/11 08:45:38;;;;;;;;;;;;;;;;;;5038791;28;23388;-61
2021/11/11 08:48:05;;;;;;;;;;;;;;;;;;5043253;28;19925;-60
2021/11/11 08:50:34;;;;;;;;;;;;;;;;;;5041768;28;19933;-62
2021/11/11 08:53:01;;;;;;;;;;;;;;;;;;5042055;28;19929;-57
2021/11/11 08:55:30;;;;;;;;;;;;;;;;;;5046506;28;19924;-57
2021/11/11 08:57:58;;;;;;;;;;;;;;;;;;5051939;28;19936;-59
2021/11/11 09:00:25;;;;;;;;;;;;;;;;;;5045767;28;19956;-58
2021/11/11 09:02:52;;;;;;;;;;;;;;;;;;5047074;28;19940;-60
2021/11/11 09:05:19;;;;;;;;;;;;;;;;;;5053876;28;20368;-58
2021/11/11 09:07:47;;;;;;;;;;;;;;;;;;5052537;28;19931;-57
2021/11/11 09:10:14;;;;;;;;;;;;;;;;;;5048553;28;20011;-59
2021/11/11 09:12:41;;;;;;;;;;;;;;;;;;5052900;28;19924;-61
2021/11/11 09:15:08;;;;;;;;;;;;;;;;;;5052342;28;19955;-61
2021/11/11 09:17:35;;;;;;;;;;;;;;;;;;5048614;28;20309;-58
2021/11/11 09:20:05;;;;;;;;;;;;;;;;;;5046738;28;19931;-60
2021/11/11 09:22:34;;;;;;;;;;;;;;;;;;5055782;28;20403;-59
2021/11/11 09:25:01;;;;;;;;;;;;;;;;;;5056820;28;19931;-58
2021/11/11 09:27:28;;;;;;;;;;;;;;;;;;5057372;28;20027;-58
2021/11/11 09:29:55;;;;;;;;;;;;;;;;;;5048395;28;19925;-61
2021/11/11 09:32:22;;;;;;;;;;;;;;;;;;5051278;28;20389;-60
2021/11/11 09:34:49;;;;;;;;;;;;;;;;;;5050956;28;19924;-60
2021/11/11 09:37:16;;;;;;;;;;;;;;;;;;5043703;28;20301;-58
2021/11/11 09:39:43;;;;;;;;;;;;;;;;;;5044853;28;19925;-58
2021/11/11 09:42:10;;;;;;;;;;;;;;;;;;5050297;28;19953;-58
2021/11/11 09:44:37;;;;;;;;;;;;;;;;;;5053824;28;20328;-60
2021/11/11 09:47:04;;;;;;;;;;;;;;;;;;5056873;28;19939;-62
2021/11/11 09:49:31;;;;;;;;;;;;;;;;;;5053066;28;19956;-58
2021/11/11 09:51:58;;;;;;;;;;;;;;;;;;5057132;28;20149;-62
2021/11/11 10:00:09;;;;;;;;;;;;;;;;;;4985773;28;19925;-60
2021/11/11 10:02:36;;;;;;;;;;;;;;;;;;5030282;28;19930;-59
2021/11/11 10:05:04;;;;;;;;;;;;;;;;;;5047922;28;19925;-61
2021/11/11 10:07:31;;;;;;;;;;;;;;;;;;5040597;28;19929;-62
2021/11/11 10:09:58;;;;;;;;;;;;;;;;;;5040865;28;19932;-61
2021/11/11 10:12:25;;;;;;;;;;;;;;;;;;5051373;28;19935;-61
2021/11/11 10:14:52;;;;;;;;;;;;;;;;;;5052260;28;19968;-60
2021/11/11 10:17:19;;;;;;;;;;;;;;;;;;5053095;28;19939;-59
2021/11/11 10:19:46;;;;;;;;;;;;;;;;;;5043820;28;19952;-62
2021/11/11 10:22:15;;;;;;;;;;;;;;;;;;5046482;28;19931;-61
2021/11/11 10:24:45;;;;;;;;;;;;;;;;;;5047791;28;19924;-60
2021/11/11 10:27:18;;;;;;;;;;;;;;;;;;5046314;28;19936;-62
2021/11/11 10:29:45;;;;;;;;;;;;;;;;;;5044592;28;20369;-63
2021/11/11 10:32:12;;;;;;;;;;;;;;;;;;5037881;28;19933;-62
2021/11/11 10:34:39;;;;;;;;;;;;;;;;;;5035141;28;20272;-62
2021/11/11 10:37:06;;;;;;;;;;;;;;;;;;5042899;28;19933;-64
2021/11/11 10:39:33;;;;;;;;;;;;;;;;;;5048269;28;20312;-64
2021/11/11 10:42:00;;;;;;;;;;;;;;;;;;5031365;28;19928;-64
2021/11/11 10:44:27;;;;;;;;;;;;;;;;;;5047439;28;19943;-65
2021/11/11 10:46:54;;;;;;;;;;;;;;;;;;5038808;28;20032;-65
2021/11/11 10:49:21;;;;;;;;;;;;;;;;;;5056768;28;20024;-61
2021/11/11 10:51:48;;;;;;;;;;;;;;;;;;5028537;28;20030;-62
2021/11/11 10:54:15;;;;;;;;;;;;;;;;;;5037658;28;20858;-62
2021/11/11 10:56:42;;;;;;;;;;;;;;;;;;5037559;28;20289;-63
2021/11/11 10:59:09;;;;;;;;;;;;;;;;;;5045142;28;19929;-62
2021/11/11 11:01:36;;;;;;;;;;;;;;;;;;5043309;28;19925;-61
2021/11/11 11:04:03;;;;;;;;;;;;;;;;;;5046452;28;19928;-62
2021/11/11 11:06:31;;;;;;;;;;;;;;;;;;5047100;28;19939;-62
2021/11/11 11:08:59;;;;;;;;;;;;;;;;;;5044797;28;19983;-60
2021/11/11 11:11:27;;;;;;;;;;;;;;;;;;5048067;28;19925;-62
2021/11/11 11:13:54;;;;;;;;;;;;;;;;;;5046289;28;19932;-63
2021/11/11 11:16:20;;;;;;;;;;;;;;;;;;5048653;28;19925;-64
2021/11/11 11:18:47;;;;;;;;;;;;;;;;;;5049636;28;19925;-68
2021/11/11 11:21:14;;;;;;;;;;;;;;;;;;5041918;28;19929;-65
2021/11/11 11:23:41;;;;;;;;;;;;;;;;;;5053226;28;19924;-64
2021/11/11 11:26:08;;;;;;;;;;;;;;;;;;5048891;28;19928;-64
2021/11/11 11:28:35;;;;;;;;;;;;;;;;;;5050129;28;20021;-63
2021/11/11 11:31:03;;;;;;;;;;;;;;;;;;5045882;28;20393;-64
2021/11/11 11:33:33;;;;;;;;;;;;;;;;;;5056048;28;20376;-63
2021/11/11 11:36:00;;;;;;;;;;;;;;;;;;5061106;28;20024;-63
2021/11/11 11:38:27;;;;;;;;;;;;;;;;;;5059730;28;19925;-63
2021/11/11 11:40:54;;;;;;;;;;;;;;;;;;5054059;28;20012;-63
2021/11/11 11:43:21;;;;;;;;;;;;;;;;;;5055487;28;19960;-63
2021/11/11 11:45:48;;;;;;;;;;;;;;;;;;5051519;28;20464;-63
2021/11/11 11:48:20;;;;;;;;;;;;;;;;;;5047394;28;20015;-62
2021/11/11 11:50:51;;;;;;;;;;;;;;;;;;5038806;28;20034;-62
2021/11/11 11:53:23;;;;;;;;;;;;;;;;;;5046641;28;19959;-65
2021/11/11 11:55:53;;;;;;;;;;;;;;;;;;5035632;28;20418;-65
2021/11/11 11:58:24;;;;;;;;;;;;;;;;;;5046419;28;19933;-64
2021/11/11 12:01:10;;;;;;;;;;;;;;;;;;5048025;28;20278;-61
2021/11/11 12:03:51;;;;;;;;;;;;;;;;;;5041124;28;19944;-61
2021/11/11 12:12:23;;;;;;;;;;;;;;;;;;5008513;28;19925;-62
2021/11/11 12:14:53;;;;;;;;;;;;;;;;;;5048591;28;19931;-63
2021/11/11 12:17:40;;;;;;;;;;;;;;;;;;5043799;28;19925;-64
2021/11/11 12:39:23;;;;;;;;;;;;;;;;;;5062315;28;19999;-63
2021/11/11 12:41:50;;;;;;;;;;;;;;;;;;5059260;28;19925;-64
2021/11/11 12:44:19;;;;;;;;;;;;;;;;;;5063203;28;19992;-63
2021/11/11 12:46:47;;;;;;;;;;;;;;;;;;5060188;28;20024;-61
2021/11/11 12:49:14;;;;;;;;;;;;;;;;;;5064777;28;19925;-61
2021/11/11 12:51:41;;;;;;;;;;;;;;;;;;5061115;28;19924;-64
2021/11/11 12:54:08;;;;;;;;;;;;;;;;;;5063922;28;19961;-61
2021/11/11 12:56:36;;;;;;;;;;;;;;;;;;5065654;28;19925;-63
2021/11/11 12:59:04;;;;;;;;;;;;;;;;;;5062138;28;19932;-61
2021/11/11 13:01:33;;;;;;;;;;;;;;;;;;5061482;28;19939;-67
2021/11/11 13:04:00;;;;;;;;;;;;;;;;;;5048294;28;19928;-61
2021/11/11 13:06:27;;;;;;;;;;;;;;;;;;5051735;28;19983;-64
2021/11/11 13:08:54;;;;;;;;;;;;;;;;;;5053163;28;19931;-64
2021/11/11 13:11:21;;;;;;;;;;;;;;;;;;5057745;28;19931;-64
2021/11/11 13:13:48;;;;;;;;;;;;;;;;;;5062624;28;19971;-62
2021/11/11 13:16:15;;;;;;;;;;;;;;;;;;5057864;28;19925;-64
2021/11/11 13:18:42;;;;;;;;;;;;;;;;;;5052232;28;20225;-60
2021/11/11 13:21:09;;;;;;;;;;;;;;;;;;5061346;28;20239;-62
2021/11/11 13:23:41;;;;;;;;;;;;;;;;;;5059887;28;19964;-70
2021/11/11 13:59:20;;;;;;;;;;;;;;;;;;5049519;28;19920;-61
2021/11/11 14:01:59;;;;;;;;;;;;;;;;;;5044530;28;20011;-62
2021/11/11 14:04:48;;;;;;;;;;;;;;;;;;5043828;28;20024;-63
2021/11/11 15:19:00;;;;;;;;;;;;;;;;;;5050539;28;19928;-59
2021/11/11 15:57:19;;;;;;;;;;;;;;;;;;5047705;28;20431;-58
2021/11/11 16:00:05;;;;;;;;;;;;;;;;;;5042799;28;19925;-56
2021/11/11 16:02:38;;;;;;;;;;;;;;;;;;5039426;28;20086;-64
2021/11/11 16:22:01;;;;;;;;;;;;;;;;;;5048342;28;20024;-62
2021/11/11 16:24:31;;;;;;;;;;;;;;;;;;5042946;28;19958;-58
2021/11/11 16:26:58;;;;;;;;;;;;;;;;;;5048336;28;19971;-62
2021/11/11 16:29:26;;;;;;;;;;;;;;;;;;5044955;28;20286;-64
2021/11/11 16:31:52;;;;;;;;;;;;;;;;;;5047661;28;19928;-59
2021/11/11 16:34:19;;;;;;;;;;;;;;;;;;5042622;28;19928;-61
2021/11/11 16:36:46;;;;;;;;;;;;;;;;;;5043817;28;19924;-62
2021/11/11 16:39:14;;;;;;;;;;;;;;;;;;5045810;28;19924;-64
2021/11/11 16:41:41;;;;;;;;;;;;;;;;;;5044065;28;19998;-62
2021/11/11 16:44:10;;;;;;;;;;;;;;;;;;5045560;28;20297;-63
2021/11/11 16:46:37;;;;;;;;;;;;;;;;;;5045785;28;20431;-63
2021/11/11 16:49:04;;;;;;;;;;;;;;;;;;5047674;28;20335;-61
2021/11/11 16:51:31;;;;;;;;;;;;;;;;;;5047230;28;19928;-64
2021/11/11 16:53:57;;;;;;;;;;;;;;;;;;5045076;28;19931;-63
2021/11/11 16:56:26;;;;;;;;;;;;;;;;;;5046267;28;19925;-62
2021/11/11 16:58:53;;;;;;;;;;;;;;;;;;5049790;28;20278;-64
2021/11/11 17:01:20;;;;;;;;;;;;;;;;;;5051635;28;20359;-63
2021/11/11 17:03:47;;;;;;;;;;;;;;;;;;5056841;28;19924;-64
2021/11/11 17:06:14;;;;;;;;;;;;;;;;;;5059138;28;19952;-63
2021/11/11 17:08:41;;;;;;;;;;;;;;;;;;5059436;28;19925;-62
2021/11/11 17:11:08;;;;;;;;;;;;;;;;;;5063196;28;19988;-64
2021/11/11 17:13:36;;;;;;;;;;;;;;;;;;5064051;28;19930;-62
2021/11/11 17:16:03;;;;;;;;;;;;;;;;;;5063044;28;19925;-61
2021/11/11 17:18:32;;;;;;;;;;;;;;;;;;5065526;28;19928;-61
2021/11/11 17:21:00;;;;;;;;;;;;;;;;;;5065030;28;19931;-64
2021/11/11 17:23:34;;;;;;;;;;;;;;;;;;5065554;28;19984;-60
2021/11/11 17:26:31;;;;;;;;;;;;;;;;;;5053628;28;20403;-61
2021/11/11 17:28:58;;;;;;;;;;;;;;;;;;5060085;28;19925;-62
2021/11/11 17:31:25;;;;;;;;;;;;;;;;;;5061675;28;20002;-61
2021/11/11 17:33:52;;;;;;;;;;;;;;;;;;5063063;28;19971;-64
2021/11/11 17:36:19;;;;;;;;;;;;;;;;;;5065111;28;19924;-62
2021/11/11 17:38:46;;;;;;;;;;;;;;;;;;5059505;28;19924;-63
2021/11/11 17:41:14;;;;;;;;;;;;;;;;;;5063486;28;19932;-63
2021/11/11 17:43:41;;;;;;;;;;;;;;;;;;5064830;28;20286;-62
2021/11/11 17:46:13;;;;;;;;;;;;;;;;;;5068023;28;21204;-61
2021/11/11 17:48:44;;;;;;;;;;;;;;;;;;5066871;28;19928;-64
2021/11/11 17:51:16;;;;;;;;;;;;;;;;;;5065683;28;19932;-64
2021/11/11 17:53:45;;;;;;;;;;;;;;;;;;5062102;28;19925;-63
2021/11/11 17:56:12;;;;;;;;;;;;;;;;;;5063931;28;20151;-63
2021/11/11 17:58:39;;;;;;;;;;;;;;;;;;5060799;28;19932;-61
2021/11/11 18:01:06;;;;;;;;;;;;;;;;;;5061804;28;19936;-63
2021/11/11 18:03:33;;;;;;;;;;;;;;;;;;5060705;28;19925;-64
2021/11/11 18:06:08;;;;;;;;;;;;;;;;;;5062306;28;19970;-63
2021/11/11 18:08:36;;;;;;;;;;;;;;;;;;5054083;28;19947;-62
2021/11/11 18:11:05;;;;;;;;;;;;;;;;;;5056948;28;19991;-62
2021/11/11 18:13:33;;;;;;;;;;;;;;;;;;5063408;28;19925;-63
2021/11/11 18:16:04;;;;;;;;;;;;;;;;;;5063532;28;19999;-64
2021/11/11 18:18:31;;;;;;;;;;;;;;;;;;5065100;28;19925;-63
2021/11/11 18:20:58;;;;;;;;;;;;;;;;;;5065439;28;19925;-64
2021/11/11 18:23:25;;;;;;;;;;;;;;;;;;5061998;28;19984;-62
2021/11/11 18:25:52;;;;;;;;;;;;;;;;;;5059210;28;19924;-65
2021/11/11 18:28:25;;;;;;;;;;;;;;;;;;5062408;28;20023;-64
2021/11/11 18:30:52;;;;;;;;;;;;;;;;;;5056604;28;19929;-64
2021/11/11 18:33:20;;;;;;;;;;;;;;;;;;5060934;28;20010;-62
2021/11/11 18:35:49;;;;;;;;;;;;;;;;;;5061847;28;19988;-62
2021/11/11 18:38:17;;;;;;;;;;;;;;;;;;5060909;28;19988;-63
2021/11/11 18:40:44;;;;;;;;;;;;;;;;;;5056190;28;19933;-64
2021/11/11 18:43:13;;;;;;;;;;;;;;;;;;5055585;28;19964;-63
2021/11/11 18:45:40;;;;;;;;;;;;;;;;;;5055113;28;19924;-64
2021/11/11 18:48:23;;;;;;;;;;;;;;;;;;5054503;28;20377;-65
2021/11/11 18:50:53;;;;;;;;;;;;;;;;;;5064932;28;20004;-60
2021/11/11 18:53:20;;;;;;;;;;;;;;;;;;5066498;28;19932;-63
2021/11/11 18:55:47;;;;;;;;;;;;;;;;;;5060599;28;19992;-64
2021/11/11 18:58:13;;;;;;;;;;;;;;;;;;5066033;28;19972;-61
2021/11/11 19:00:40;;;;;;;;;;;;;;;;;;5062101;28;20220;-64
2021/11/11 19:03:07;;;;;;;;;;;;;;;;;;5060616;28;19951;-62
2021/11/11 19:05:38;;;;;;;;;;;;;;;;;;5062157;28;19939;-63
2021/11/11 19:08:07;;;;;;;;;;;;;;;;;;5059808;28;20020;-61
2021/11/11 19:10:40;;;;;;;;;;;;;;;;;;5065786;28;20043;-65
2021/11/11 19:13:10;;;;;;;;;;;;;;;;;;5064455;28;19967;-65
2021/11/11 19:15:40;;;;;;;;;;;;;;;;;;5061238;28;19959;-63
2021/11/11 19:18:10;;;;;;;;;;;;;;;;;;5061228;28;19925;-61
2021/11/11 19:20:37;;;;;;;;;;;;;;;;;;5063143;28;19932;-64
2021/11/11 19:23:04;;;;;;;;;;;;;;;;;;5062796;28;19983;-64
2021/11/11 19:25:31;;;;;;;;;;;;;;;;;;5059424;28;20000;-64
2021/11/11 19:27:58;;;;;;;;;;;;;;;;;;5059926;28;19967;-64
2021/11/11 19:30:25;;;;;;;;;;;;;;;;;;5054664;28;19996;-63
2021/11/11 19:32:54;;;;;;;;;;;;;;;;;;5063891;28;19933;-62
2021/11/11 19:35:25;;;;;;;;;;;;;;;;;;5063910;28;19928;-63
2021/11/11 19:38:00;;;;;;;;;;;;;;;;;;5060965;28;19924;-62
2021/11/11 19:40:51;;;;;;;;;;;;;;;;;;5062764;28;20019;-64
2021/11/11 19:55:03;;;;;;;;;;;;;;;;;;5034818;28;19921;-64
2021/11/11 19:57:41;;;;;;;;;;;;;;;;;;5060116;28;19929;-64
2021/11/11 20:08:28;;;;;;;;;;;;;;;;;;5031876;28;19929;-61
2021/11/11 20:11:00;;;;;;;;;;;;;;;;;;5057070;28;19929;-63
2021/11/11 20:16:28;;;;;;;;;;;;;;;;;;5053391;28;19921;-63
2021/11/11 20:19:12;;;;;;;;;;;;;;;;;;5048975;28;19977;-62
2021/11/11 20:38:26;;;;;;;;;;;;;;;;;;5058254;28;19925;-65
2021/11/11 20:41:13;;;;;;;;;;;;;;;;;;5056959;28;19932;-63
2021/11/11 20:54:56;;;;;;;;;;;;;;;;;;5042599;28;19921;-61
2021/11/11 20:57:27;;;;;;;;;;;;;;;;;;5056056;28;20377;-63
2021/11/11 21:00:05;;;;;;;;;;;;;;;;;;5062908;28;19924;-62
2021/11/11 21:02:34;;;;;;;;;;;;;;;;;;5061094;28;19936;-63
2021/11/11 21:05:05;;;;;;;;;;;;;;;;;;5053735;28;20389;-62
2021/11/11 21:07:38;;;;;;;;;;;;;;;;;;5062006;28;19967;-62
2021/11/11 21:10:13;;;;;;;;;;;;;;;;;;5062996;28;19929;-59
2021/11/11 21:12:52;;;;;;;;;;;;;;;;;;5066800;28;20492;-64